Time;durP1;ratioP1;P1;durP2;ratioP2;P2;SDS_P1;SDS_P2;PMS_P1;PMS_P2;Temp;Humidity;BMP_temperature;BMP_pressure;BME280_temperature;BME280_humidity;BME280_pressure;Samples;Min_cycle;Max_cycle;Signal;HPM_P1;HPM_P2
2020/12/30 00:00:28;;;;;;;15.50;9.95;;;;;;;4.45;71.42;98725.36;2842503;81;21137;-61
2020/12/30 00:04:35;;;;;;;55.20;31.35;;;;;;;4.34;72.09;98720.13;2871975;82;21115;-59
2020/12/30 00:08:38;;;;;;;31.77;19.57;;;;;;;4.16;72.26;98722.45;2873615;81;21124;-60
2020/12/30 00:12:42;;;;;;;31.50;18.65;;;;;;;4.01;73.00;98729.30;2852832;81;21123;-60
2020/12/30 00:16:47;;;;;;;27.50;18.05;;;;;;;3.87;73.46;98735.66;2839293;82;21095;-60
2020/12/30 00:20:50;;;;;;;30.77;17.07;;;;;;;3.88;73.61;98748.31;2843722;81;21133;-59
2020/12/30 00:24:54;;;;;;;36.70;21.82;;;;;;;3.89;73.50;98753.94;2830346;81;21175;-60
2020/12/30 00:28:57;;;;;;;21.05;16.32;;;;;;;3.84;73.42;98745.93;2845650;81;21123;-59
2020/12/30 00:33:01;;;;;;;12.78;9.48;;;;;;;3.82;73.57;98745.22;2839280;81;21620;-59
2020/12/30 00:37:04;;;;;;;20.50;10.72;;;;;;;3.79;73.35;98751.19;2870154;82;21116;-59
2020/12/30 00:41:15;;;;;;;24.75;15.48;;;;;;;3.71;73.78;98764.94;2864281;81;21115;-60
2020/12/30 00:45:49;;;;;;;23.65;14.03;;;;;;;3.69;73.89;98767.70;2843914;81;21129;-60
2020/12/30 00:49:53;;;;;;;17.67;10.10;;;;;;;3.57;74.17;98772.13;2856698;81;21107;-60
2020/12/30 00:54:31;;;;;;;22.77;10.70;;;;;;;3.54;74.72;98769.73;2868443;81;21128;-59
2020/12/30 00:58:36;;;;;;;18.80;10.45;;;;;;;3.65;74.69;98780.73;2874863;82;21545;-60
2020/12/30 01:02:39;;;;;;;49.77;30.02;;;;;;;3.62;74.47;98794.59;2875304;82;21111;-61
2020/12/30 01:06:47;;;;;;;65.87;35.30;;;;;;;3.46;74.74;98801.02;2869979;81;21127;-61
2020/12/30 01:10:50;;;;;;;45.52;22.17;;;;;;;3.35;75.38;98799.70;2870412;83;21111;-59
2020/12/30 01:15:26;;;;;;;37.75;18.60;;;;;;;3.24;75.96;98792.13;2870380;83;21148;-60
2020/12/30 01:19:29;;;;;;;22.98;15.15;;;;;;;3.17;75.58;98786.13;2825226;83;21127;-59
2020/12/30 01:24:05;;;;;;;29.82;15.88;;;;;;;3.07;76.91;98779.42;2821893;83;21115;-59
2020/12/30 01:28:09;;;;;;;22.42;13.32;;;;;;;3.17;76.79;98788.77;2821827;84;21108;-61
2020/12/30 01:32:12;;;;;;;24.40;14.73;;;;;;;3.17;76.95;98785.67;2821876;83;21107;-61
2020/12/30 01:36:16;;;;;;;16.55;10.72;;;;;;;3.19;77.24;98786.39;2821637;84;21107;-59
2020/12/30 01:40:20;;;;;;;24.43;12.45;;;;;;;3.19;77.16;98786.39;2821760;83;21112;-60
2020/12/30 01:44:23;;;;;;;17.57;10.53;;;;;;;3.13;77.37;98785.52;2821835;84;21159;-62
2020/12/30 01:48:26;;;;;;;15.45;11.50;;;;;;;3.14;77.51;98790.67;2821525;83;21100;-60
2020/12/30 01:52:31;;;;;;;20.23;12.88;;;;;;;3.13;77.37;98790.77;2821996;84;21115;-61
2020/12/30 01:56:35;;;;;;;20.12;13.08;;;;;;;3.00;77.47;98790.39;2822044;84;21525;-61
2020/12/30 02:00:41;;;;;;;36.15;18.95;;;;;;;2.92;77.82;98793.23;2821649;83;21119;-61
2020/12/30 02:04:56;;;;;;;31.97;16.83;;;;;;;2.87;78.24;98794.88;2821890;84;21171;-60
2020/12/30 02:09:03;;;;;;;16.07;10.60;;;;;;;2.86;78.53;98795.83;2821708;84;21551;-60
2020/12/30 02:13:05;;;;;;;23.17;13.77;;;;;;;2.92;78.55;98783.55;2831763;81;21538;-61
2020/12/30 02:17:13;;;;;;;20.20;11.03;;;;;;;3.02;77.99;98790.27;2841686;83;22225;-62
2020/12/30 02:21:16;;;;;;;20.72;14.05;;;;;;;3.11;77.99;98778.23;2821643;84;21115;-59
2020/12/30 02:25:19;;;;;;;21.10;13.22;;;;;;;3.23;77.43;98792.23;2836437;82;21080;-61
2020/12/30 02:29:23;;;;;;;30.65;18.48;;;;;;;3.34;76.87;98796.22;2868691;83;21081;-59
2020/12/30 02:33:26;;;;;;;15.58;11.18;;;;;;;3.32;76.46;98809.10;2867884;83;21559;-60
2020/12/30 02:37:29;;;;;;;25.75;13.78;;;;;;;3.18;76.81;98797.01;2867471;83;21930;-62
2020/12/30 02:41:32;;;;;;;23.38;10.63;;;;;;;2.98;77.41;98794.93;2863267;83;21216;-60
2020/12/30 02:45:35;;;;;;;20.77;9.33;;;;;;;2.97;78.79;98788.47;2869860;83;21139;-60
2020/12/30 02:49:38;;;;;;;15.70;8.83;;;;;;;3.02;78.37;98791.58;2870469;83;21111;-60
2020/12/30 02:53:42;;;;;;;10.68;8.50;;;;;;;3.07;77.86;98791.24;2870007;81;21140;-62
2020/12/30 02:57:45;;;;;;;20.10;11.43;;;;;;;3.14;77.20;98793.77;2870334;83;21103;-60
2020/12/30 03:01:48;;;;;;;17.95;9.73;;;;;;;3.19;76.98;98798.22;2870011;83;21100;-60
2020/12/30 03:05:51;;;;;;;14.45;9.63;;;;;;;3.24;76.85;98800.02;2872900;82;21111;-60
2020/12/30 03:09:54;;;;;;;14.13;9.15;;;;;;;3.18;77.19;98795.23;2871236;82;21135;-60
2020/12/30 03:13:57;;;;;;;19.50;12.20;;;;;;;3.15;76.87;98795.47;2826779;84;21127;-60
2020/12/30 03:18:00;;;;;;;17.70;9.98;;;;;;;3.13;77.33;98789.46;2826488;84;21122;-59
2020/12/30 03:22:03;;;;;;;12.88;9.25;;;;;;;3.12;77.30;98787.33;2826496;84;21107;-60
2020/12/30 03:26:06;;;;;;;26.42;12.63;;;;;;;3.18;77.07;98787.34;2826579;84;21115;-59
2020/12/30 03:30:08;;;;;;;12.15;9.23;;;;;;;3.22;77.15;98794.04;2826857;83;21116;-60
2020/12/30 03:34:12;;;;;;;23.18;9.73;;;;;;;3.19;76.98;98794.73;2826940;84;21075;-60
2020/12/30 03:38:15;;;;;;;19.62;10.32;;;;;;;3.19;76.87;98785.08;2826588;84;21119;-59
2020/12/30 03:42:18;;;;;;;23.38;10.43;;;;;;;3.15;76.90;98783.64;2826827;84;21103;-60
2020/12/30 03:46:21;;;;;;;16.93;11.18;;;;;;;3.27;77.00;98787.13;2826914;84;21134;-60
2020/12/30 03:50:25;;;;;;;12.13;8.60;;;;;;;3.38;76.72;98783.69;2826424;82;21123;-59
2020/12/30 03:54:29;;;;;;;9.25;6.78;;;;;;;3.46;76.10;98786.55;2839687;82;21218;-60
2020/12/30 03:58:32;;;;;;;19.82;7.47;;;;;;;3.50;75.73;98780.10;2870673;82;21147;-58
2020/12/30 04:02:35;;;;;;;9.10;6.60;;;;;;;3.44;74.92;98788.47;2854885;82;21105;-61
2020/12/30 04:06:38;;;;;;;13.62;6.80;;;;;;;3.25;74.99;98785.09;2870390;82;21117;-60
2020/12/30 04:10:40;;;;;;;17.95;8.33;;;;;;;3.23;75.48;98786.52;2868999;81;21117;-60
2020/12/30 04:14:43;;;;;;;10.23;6.62;;;;;;;3.23;75.95;98784.34;2866160;83;21168;-58
2020/12/30 04:18:46;;;;;;;13.10;7.92;;;;;;;3.28;75.54;98784.37;2870207;83;21095;-59
2020/12/30 04:22:50;;;;;;;12.23;6.83;;;;;;;3.31;75.35;98789.03;2869958;81;21123;-59
2020/12/30 04:26:53;;;;;;;7.75;5.87;;;;;;;3.39;74.73;98782.23;2869751;81;21116;-59
2020/12/30 04:30:56;;;;;;;12.45;7.37;;;;;;;3.32;74.11;98781.05;2842330;83;21091;-59
2020/12/30 04:34:59;;;;;;;13.90;9.10;;;;;;;3.26;75.00;98787.59;2862614;82;21108;-60
2020/12/30 04:39:02;;;;;;;14.80;8.83;;;;;;;3.25;74.98;98789.86;2836349;83;21115;-59
2020/12/30 04:43:06;;;;;;;13.85;7.72;;;;;;;3.34;74.96;98791.42;2821411;84;21079;-60
2020/12/30 04:47:11;;;;;;;14.03;6.50;;;;;;;3.37;74.61;98791.21;2844336;82;37993;-60
2020/12/30 04:51:16;;;;;;;7.33;5.62;;;;;;;3.36;74.79;98797.42;2867232;83;21145;-60
2020/12/30 04:55:23;;;;;;;14.47;8.33;;;;;;;3.35;75.07;98797.89;2848147;82;21097;-59
2020/12/30 04:59:29;;;;;;;8.33;5.67;;;;;;;3.42;75.24;98796.45;2862007;82;21182;-61
2020/12/30 05:03:39;;;;;;;8.50;6.37;;;;;;;3.45;74.47;98797.20;2865132;81;22080;-62
2020/12/30 05:07:45;;;;;;;23.67;11.88;;;;;;;3.46;74.58;98798.88;2851187;83;21134;-61
2020/12/30 05:11:48;;;;;;;17.98;10.65;;;;;;;3.48;74.15;98798.28;2833848;82;21537;-61
2020/12/30 05:15:55;;;;;;;14.85;11.83;;;;;;;3.45;73.85;98796.71;2864794;82;21592;-61
2020/12/30 05:19:58;;;;;;;15.18;9.68;;;;;;;3.42;73.89;98800.89;2847135;82;21151;-62
2020/12/30 05:24:04;;;;;;;15.75;10.10;;;;;;;3.34;73.90;98811.13;2833145;83;21551;-61
2020/12/30 05:28:13;;;;;;;13.45;6.70;;;;;;;3.33;74.78;98819.52;2840882;82;21111;-61
2020/12/30 05:32:18;;;;;;;9.45;7.08;;;;;;;3.30;74.99;98826.32;2869702;83;21116;-61
2020/12/30 05:36:25;;;;;;;15.53;9.68;;;;;;;3.32;75.09;98838.02;2869734;82;21147;-62
2020/12/30 05:40:30;;;;;;;12.63;9.40;;;;;;;3.34;75.10;98843.99;2870041;83;21111;-61
2020/12/30 05:44:33;;;;;;;15.67;9.37;;;;;;;3.37;75.23;98835.90;2869892;81;21111;-62
2020/12/30 05:48:36;;;;;;;14.33;8.48;;;;;;;3.40;75.25;98832.54;2869943;81;21260;-60
2020/12/30 05:52:40;;;;;;;12.98;9.90;;;;;;;3.39;75.22;98826.92;2870153;83;21116;-61
2020/12/30 05:56:43;;;;;;;19.62;11.10;;;;;;;3.38;74.85;98836.26;2870215;83;21096;-61
2020/12/30 06:00:47;;;;;;;10.98;7.67;;;;;;;3.32;75.08;98849.84;2870079;83;21107;-61
2020/12/30 06:04:55;;;;;;;12.73;7.08;;;;;;;3.35;75.26;98853.09;2870154;82;21131;-61
2020/12/30 06:08:59;;;;;;;11.10;7.05;;;;;;;3.37;75.10;98870.89;2869988;83;21083;-61
2020/12/30 06:13:02;;;;;;;12.23;7.78;;;;;;;3.41;75.16;98879.40;2870109;83;21120;-62
2020/12/30 06:17:08;;;;;;;19.40;9.53;;;;;;;3.46;74.78;98887.77;2870044;83;21131;-61
2020/12/30 06:21:13;;;;;;;16.57;9.05;;;;;;;3.46;74.37;98885.14;2869754;83;21095;-60
2020/12/30 06:25:20;;;;;;;23.15;13.18;;;;;;;3.45;74.24;98891.35;2870060;82;21112;-61
2020/12/30 06:29:22;;;;;;;19.32;13.98;;;;;;;3.45;73.82;98891.35;2870016;83;21131;-61
2020/12/30 06:33:25;;;;;;;16.95;9.78;;;;;;;3.51;73.86;98893.52;2861614;81;21148;-60
2020/12/30 06:37:31;;;;;;;12.85;8.63;;;;;;;3.52;73.71;98893.88;2840864;83;21104;-61
2020/12/30 06:42:03;;;;;;;14.43;9.88;;;;;;;3.52;73.71;98895.19;2822067;84;21087;-60
2020/12/30 06:46:07;;;;;;;18.20;11.38;;;;;;;3.50;74.12;98895.78;2836083;81;21127;-61
2020/12/30 06:50:17;;;;;;;31.65;16.87;;;;;;;3.46;74.24;98900.09;2843995;83;21135;-60
2020/12/30 06:54:21;;;;;;;37.13;19.80;;;;;;;3.36;74.59;98903.39;2823206;83;21180;-59
2020/12/30 06:58:50;;;;;;;34.23;19.02;;;;;;;3.22;75.16;98899.16;2821837;84;21111;-61
2020/12/30 07:03:14;;;;;;;362.60;167.68;;;;;;;3.18;75.52;98895.55;2821586;83;21550;-62
2020/12/30 07:07:20;;;;;;;505.57;259.77;;;;;;;3.21;75.77;98901.43;2821450;84;21123;-61
2020/12/30 07:11:52;;;;;;;67.12;32.42;;;;;;;3.29;75.74;98899.06;2839014;81;21119;-61
2020/12/30 07:16:21;;;;;;;33.53;20.45;;;;;;;3.36;75.77;98907.83;2858170;83;21161;-62
2020/12/30 07:20:25;;;;;;;34.83;19.45;;;;;;;3.48;75.59;98909.52;2836090;83;21103;-61
2020/12/30 07:24:39;;;;;;;38.10;26.73;;;;;;;3.57;75.30;98922.46;2821502;84;21136;-61
2020/12/30 07:28:44;;;;;;;96.08;60.25;;;;;;;3.48;74.81;98929.24;2821685;83;21091;-62
2020/12/30 07:32:48;;;;;;;951.95;558.87;;;;;;;3.34;75.30;98935.53;2834892;81;21111;-61
2020/12/30 07:36:52;;;;;;;450.38;256.82;;;;;;;3.16;75.85;98936.41;2824287;83;21129;-62
2020/12/30 07:41:08;;;;;;;272.67;163.55;;;;;;;3.04;76.38;98933.34;2845097;83;21167;-61
2020/12/30 07:45:12;;;;;;;122.25;58.17;;;;;;;2.89;76.96;98933.49;2821520;84;21575;-60
2020/12/30 07:49:22;;;;;;;328.30;188.57;;;;;;;2.93;77.41;98927.55;2821579;83;21143;-61
2020/12/30 07:53:24;;;;;;;83.80;47.10;;;;;;;3.03;77.24;98932.98;2821714;83;21147;-60
2020/12/30 07:57:28;;;;;;;188.45;105.15;;;;;;;3.08;77.05;98939.59;2821578;84;21115;-61
2020/12/30 08:01:31;;;;;;;157.15;85.10;;;;;;;3.14;77.32;98943.54;2821912;84;21107;-60
2020/12/30 08:05:35;;;;;;;232.85;137.60;;;;;;;3.19;77.28;98946.70;2822061;84;21111;-60
2020/12/30 08:09:41;;;;;;;356.55;214.88;;;;;;;3.22;77.53;98942.52;2826569;84;21111;-60
2020/12/30 08:13:44;;;;;;;84.75;52.05;;;;;;;3.32;77.03;98956.30;2826379;82;21574;-62
2020/12/30 08:17:47;;;;;;;485.43;299.12;;;;;;;3.34;76.89;98960.50;2826701;84;21131;-60
2020/12/30 08:22:12;;;;;;;173.65;95.45;;;;;;;3.38;77.00;98962.44;2826834;84;21075;-61
2020/12/30 08:26:15;;;;;;;428.52;247.42;;;;;;;3.39;76.87;98966.73;2826455;84;21127;-61
2020/12/30 08:30:17;;;;;;;319.75;182.68;;;;;;;3.39;76.87;98964.94;2827545;81;21119;-60
2020/12/30 08:34:25;;;;;;;133.43;75.87;;;;;;;3.53;77.20;98961.28;2844154;81;21114;-61
2020/12/30 08:38:31;;;;;;;190.00;107.95;;;;;;;3.69;77.15;98957.06;2868465;82;21108;-61
2020/12/30 08:42:45;;;;;;;233.43;144.65;;;;;;;3.87;76.94;98965.84;2850244;82;21120;-60
2020/12/30 08:46:53;;;;;;;61.05;36.55;;;;;;;4.04;76.86;98968.51;2826318;84;21576;-60
2020/12/30 08:50:56;;;;;;;94.42;62.35;;;;;;;4.11;75.92;98971.02;2826426;84;21107;-60
2020/12/30 08:55:03;;;;;;;82.70;50.45;;;;;;;3.99;75.95;98983.31;2826645;84;21577;-60
2020/12/30 08:59:06;;;;;;;75.08;46.58;;;;;;;4.09;77.04;98982.14;2826491;84;21553;-60
2020/12/30 09:03:15;;;;;;;56.13;38.50;;;;;;;4.29;77.12;98979.78;2843728;81;21115;-59
2020/12/30 09:07:27;;;;;;;60.10;36.80;;;;;;;4.49;77.10;98973.00;2836932;82;21095;-60
2020/12/30 09:11:30;;;;;;;55.50;35.63;;;;;;;4.59;75.92;98983.66;2854967;81;21111;-60
2020/12/30 09:15:36;;;;;;;58.30;33.80;;;;;;;4.67;75.72;98984.38;2855109;82;21577;-60
2020/12/30 09:19:40;;;;;;;53.63;36.68;;;;;;;4.71;75.78;98979.22;2841239;83;21180;-62
2020/12/30 09:23:43;;;;;;;39.30;24.90;;;;;;;4.83;76.34;98984.00;2806663;82;21128;-61
2020/12/30 09:27:47;;;;;;;83.05;45.43;;;;;;;5.08;75.87;98986.00;2795976;82;21589;-60
2020/12/30 09:31:56;;;;;;;62.48;36.98;;;;;;;5.38;76.33;98982.69;2833075;82;21538;-61
2020/12/30 09:36:08;;;;;;;56.85;40.03;;;;;;;5.72;75.85;98971.19;2806075;84;21146;-59
2020/12/30 09:40:15;;;;;;;94.80;55.70;;;;;;;6.08;75.72;98974.87;2836953;82;21096;-60
2020/12/30 09:44:18;;;;;;;53.25;31.12;;;;;;;6.34;73.73;98970.02;2833795;84;21069;-61
2020/12/30 09:48:23;;;;;;;50.63;30.88;;;;;;;6.34;72.40;98968.70;2802984;84;21119;-61
2020/12/30 09:52:26;;;;;;;43.48;31.82;;;;;;;6.36;71.70;98973.84;2799307;82;21180;-59
2020/12/30 09:56:29;;;;;;;37.75;24.77;;;;;;;6.20;71.50;98975.16;2810810;84;21649;-61
2020/12/30 10:00:32;;;;;;;44.67;27.20;;;;;;;6.08;72.01;98979.65;2792843;82;21156;-60
2020/12/30 10:04:38;;;;;;;66.47;43.63;;;;;;;6.05;72.52;98975.95;2810084;84;21156;-61
2020/12/30 10:08:41;;;;;;;41.50;28.52;;;;;;;6.12;72.78;98980.23;2790731;83;21138;-60
2020/12/30 10:12:44;;;;;;;37.70;26.17;;;;;;;6.03;72.15;98971.79;2843467;81;21530;-61
2020/12/30 10:16:48;;;;;;;68.55;39.80;;;;;;;5.98;72.82;98974.27;2839166;83;21121;-61
2020/12/30 10:20:51;;;;;;;60.75;36.98;;;;;;;6.18;73.97;98961.23;2866607;81;21131;-61
2020/12/30 10:24:55;;;;;;;82.40;51.92;;;;;;;6.44;72.98;98962.14;2850650;83;21530;-59
2020/12/30 10:28:57;;;;;;;51.83;31.55;;;;;;;6.52;72.54;98970.73;2821744;84;21115;-60
2020/12/30 10:33:00;;;;;;;46.30;28.25;;;;;;;6.65;71.64;98967.36;2841750;81;21115;-61
2020/12/30 10:37:05;;;;;;;36.33;20.70;;;;;;;6.73;70.88;98967.20;2863592;83;21153;-61
2020/12/30 10:41:17;;;;;;;34.65;22.13;;;;;;;6.80;71.07;98967.86;2840903;81;21111;-61
2020/12/30 10:45:20;;;;;;;38.35;25.12;;;;;;;6.89;70.33;98963.58;2846890;83;21087;-61
2020/12/30 10:49:24;;;;;;;34.08;25.50;;;;;;;6.83;70.41;98960.98;2821719;84;21119;-60
2020/12/30 10:53:28;;;;;;;42.73;23.05;;;;;;;6.96;70.29;98955.91;2842261;81;21218;-61
2020/12/30 10:57:31;;;;;;;31.15;23.92;;;;;;;7.12;70.03;98952.27;2839841;83;21162;-62
2020/12/30 11:01:34;;;;;;;37.17;20.88;;;;;;;7.25;69.57;98948.54;2821599;84;21194;-62
2020/12/30 11:05:37;;;;;;;29.37;22.07;;;;;;;7.27;69.09;98949.23;2854881;81;21193;-61
2020/12/30 11:09:41;;;;;;;39.98;23.22;;;;;;;7.36;69.43;98954.19;2863735;81;21139;-60
2020/12/30 11:13:46;;;;;;;33.65;21.95;;;;;;;7.49;68.50;98950.80;2852598;81;21119;-62
2020/12/30 11:17:50;;;;;;;28.62;20.40;;;;;;;7.55;67.89;98952.88;2861194;81;21123;-61
2020/12/30 11:21:54;;;;;;;27.98;19.35;;;;;;;7.53;67.19;98957.47;2862844;81;21538;-61
2020/12/30 11:25:57;;;;;;;31.55;20.55;;;;;;;7.46;66.38;98953.69;2866674;81;21164;-60
2020/12/30 11:30:01;;;;;;;37.30;17.50;;;;;;;7.45;67.02;98955.98;2857800;81;21123;-59
2020/12/30 11:34:04;;;;;;;31.37;18.92;;;;;;;7.46;67.03;98945.75;2854094;81;21152;-60
2020/12/30 11:38:07;;;;;;;26.20;19.12;;;;;;;7.49;66.18;98940.69;2832576;82;21194;-60
2020/12/30 11:42:11;;;;;;;31.90;18.87;;;;;;;7.52;66.25;98943.90;2825886;82;21178;-60
2020/12/30 11:46:20;;;;;;;26.50;17.23;;;;;;;7.63;66.18;98947.36;2808202;83;21140;-61
2020/12/30 11:50:23;;;;;;;36.95;20.85;;;;;;;7.68;65.47;98946.48;2808354;82;21124;-59
2020/12/30 11:54:26;;;;;;;35.60;23.52;;;;;;;7.75;66.52;98946.25;2806248;82;21144;-60
2020/12/30 11:58:29;;;;;;;35.75;21.80;;;;;;;7.82;66.64;98947.34;2808453;82;21124;-60
2020/12/30 12:02:33;;;;;;;32.67;19.80;;;;;;;7.82;66.30;98943.88;2807371;82;21096;-60
2020/12/30 12:06:36;;;;;;;28.75;19.30;;;;;;;7.79;66.26;98944.98;2802156;82;21193;-61
2020/12/30 12:10:39;;;;;;;37.98;23.15;;;;;;;7.79;65.81;98941.52;2779539;84;21640;-61
2020/12/30 12:14:42;;;;;;;36.40;23.45;;;;;;;7.80;65.99;98941.87;2787442;84;21136;-61
2020/12/30 12:18:45;;;;;;;59.10;36.15;;;;;;;7.78;65.42;98939.85;2789277;84;21205;-62
2020/12/30 12:22:48;;;;;;;66.22;39.73;;;;;;;7.78;65.50;98938.02;2786769;84;21145;-60
2020/12/30 12:26:51;;;;;;;105.43;62.78;;;;;;;7.77;64.85;98939.00;2786629;84;21111;-59
2020/12/30 12:30:54;;;;;;;58.63;35.52;;;;;;;7.75;65.19;98943.60;2788878;83;21150;-60
2020/12/30 12:34:57;;;;;;;42.60;22.00;;;;;;;7.76;64.88;98945.75;2826847;82;21153;-59
2020/12/30 12:39:03;;;;;;;39.78;23.92;;;;;;;7.74;65.60;98941.94;2827274;82;21146;-59
2020/12/30 12:43:06;;;;;;;38.73;21.33;;;;;;;7.74;66.28;98948.55;2827356;84;21092;-60
2020/12/30 12:47:09;;;;;;;39.13;25.05;;;;;;;7.77;65.92;98946.94;2827051;82;21124;-60
2020/12/30 12:51:12;;;;;;;37.83;26.48;;;;;;;7.75;65.51;98944.92;2826486;82;21142;-61
2020/12/30 12:55:15;;;;;;;37.35;22.45;;;;;;;7.73;65.81;98946.88;2795393;83;21129;-61
2020/12/30 12:59:18;;;;;;;44.35;27.48;;;;;;;7.61;65.87;98947.98;2820182;82;21132;-60
2020/12/30 13:03:21;;;;;;;37.60;24.10;;;;;;;7.51;66.50;98961.22;2822989;82;21149;-60
2020/12/30 13:07:24;;;;;;;41.63;25.72;;;;;;;7.58;66.63;98960.53;2787373;84;21129;-61
2020/12/30 13:11:29;;;;;;;28.42;19.42;;;;;;;7.67;66.29;98959.36;2793881;83;21144;-61
2020/12/30 13:15:32;;;;;;;34.00;22.10;;;;;;;7.68;65.95;98965.00;2811237;82;21577;-60
2020/12/30 13:19:34;;;;;;;123.85;78.33;;;;;;;7.68;65.87;98971.63;2809584;83;21176;-59
2020/12/30 13:23:41;;;;;;;88.65;50.20;;;;;;;7.62;66.22;98979.63;2812819;83;22561;-61
2020/12/30 13:27:49;;;;;;;51.45;30.80;;;;;;;7.64;66.35;98980.79;2803196;83;21152;-58
2020/12/30 13:31:52;;;;;;;44.83;25.50;;;;;;;7.64;66.21;98984.76;2815684;82;21186;-60
2020/12/30 13:35:56;;;;;;;37.85;23.40;;;;;;;7.63;66.68;98981.77;2746273;84;21106;-60
2020/12/30 13:39:59;;;;;;;40.35;23.02;;;;;;;7.56;66.92;98982.33;2795737;83;21587;-60
2020/12/30 13:44:05;;;;;;;45.65;25.52;;;;;;;7.54;67.78;98982.11;2829333;82;21184;-61
2020/12/30 13:48:09;;;;;;;50.23;36.38;;;;;;;7.50;68.40;98978.92;2789252;84;21158;-60
2020/12/30 13:52:11;;;;;;;38.08;24.50;;;;;;;7.49;68.93;98984.34;2762809;84;21218;-60
2020/12/30 13:56:14;;;;;;;36.28;25.85;;;;;;;7.46;69.17;98990.73;2797596;83;21157;-60
2020/12/30 14:00:17;;;;;;;46.25;31.33;;;;;;;7.39;69.11;98989.63;2796605;83;21148;-58
2020/12/30 14:04:20;;;;;;;36.88;26.52;;;;;;;7.32;69.23;98989.83;2773275;83;21145;-61
2020/12/30 14:08:23;;;;;;;33.67;23.40;;;;;;;7.29;68.92;98990.45;2808972;83;21208;-62
2020/12/30 14:12:26;;;;;;;44.70;23.50;;;;;;;7.14;68.71;98995.28;2810157;83;21177;-61
2020/12/30 14:16:29;;;;;;;37.28;24.40;;;;;;;7.03;68.87;98987.47;2784189;85;21170;-65
2020/12/30 14:20:34;;;;;;;30.72;21.20;;;;;;;6.90;69.19;98987.72;2783228;85;21169;-66
2020/12/30 14:24:39;;;;;;;77.08;43.35;;;;;;;6.80;69.04;98989.00;2784305;85;21157;-65
2020/12/30 14:28:42;;;;;;;85.40;50.52;;;;;;;6.68;69.20;98990.91;2784248;85;21185;-66
2020/12/30 14:32:45;;;;;;;87.25;50.33;;;;;;;6.59;69.37;98990.86;2784151;85;21177;-70
2020/12/30 14:36:48;;;;;;;115.90;65.30;;;;;;;6.47;69.52;98993.58;2784095;85;21161;-67
2020/12/30 14:40:51;;;;;;;90.62;46.13;;;;;;;6.45;69.45;98994.20;2785192;83;22213;-68
2020/12/30 14:44:54;;;;;;;63.38;38.30;;;;;;;6.38;69.91;98997.84;2785903;83;21169;-68
2020/12/30 14:48:57;;;;;;;73.02;39.38;;;;;;;6.24;69.81;98999.48;2784316;83;21179;-66
2020/12/30 14:53:02;;;;;;;58.25;34.27;;;;;;;6.17;70.01;99004.94;2787005;83;21145;-69
2020/12/30 14:57:05;;;;;;;74.50;40.00;;;;;;;6.11;70.14;99005.81;2787946;85;21649;-67
2020/12/30 15:01:24;;;;;;;106.05;56.40;;;;;;;6.04;70.30;99008.59;2831216;83;21213;-67
2020/12/30 15:05:27;;;;;;;73.67;40.30;;;;;;;5.97;70.75;99010.05;2848110;83;21146;-66
2020/12/30 15:09:31;;;;;;;144.93;85.60;;;;;;;5.79;70.79;99017.67;2860530;81;21637;-68
2020/12/30 15:13:34;;;;;;;156.10;94.77;;;;;;;5.64;71.70;99017.14;2867335;83;21637;-67
2020/12/30 15:17:37;;;;;;;81.25;52.13;;;;;;;5.46;71.86;99022.95;2867604;83;21159;-68
2020/12/30 15:21:40;;;;;;;88.67;46.75;;;;;;;5.33;71.99;99024.92;2867631;83;21593;-66
2020/12/30 15:25:43;;;;;;;72.78;41.95;;;;;;;5.25;72.20;99031.63;2867667;83;21155;-68
2020/12/30 15:29:46;;;;;;;111.00;62.27;;;;;;;5.23;71.93;99024.32;2867844;83;21533;-67
2020/12/30 15:33:49;;;;;;;112.40;65.15;;;;;;;5.10;71.79;99032.84;2867831;83;21695;-66
2020/12/30 15:37:55;;;;;;;128.57;68.55;;;;;;;4.93;71.95;99026.27;2867554;83;21145;-66
2020/12/30 15:41:58;;;;;;;174.30;97.42;;;;;;;4.80;72.13;99023.77;2867755;83;21123;-67
2020/12/30 15:46:02;;;;;;;176.18;99.72;;;;;;;4.75;72.18;99035.15;2867957;83;22450;-67
2020/12/30 15:50:06;;;;;;;144.82;79.20;;;;;;;4.69;72.36;99038.59;2867256;83;21151;-65
2020/12/30 15:54:08;;;;;;;152.87;89.30;;;;;;;4.63;72.50;99039.08;2867714;83;21182;-67
2020/12/30 15:58:11;;;;;;;156.00;95.40;;;;;;;4.60;72.67;99046.38;2867669;83;21127;-68
2020/12/30 16:02:15;;;;;;;143.02;90.20;;;;;;;4.62;72.57;99047.94;2867542;83;21183;-67
2020/12/30 16:06:18;;;;;;;123.02;73.67;;;;;;;4.60;72.53;99049.00;2867514;83;22184;-65
2020/12/30 16:10:21;;;;;;;115.70;70.40;;;;;;;4.62;72.55;99055.84;2871779;82;21174;-66
2020/12/30 16:14:24;;;;;;;121.90;75.32;;;;;;;4.64;72.52;99059.20;2872797;82;21605;-65
2020/12/30 16:18:27;;;;;;;277.40;157.12;;;;;;;4.64;72.15;99057.88;2872579;82;22293;-66
2020/12/30 16:22:31;;;;;;;210.00;118.85;;;;;;;4.56;72.40;99060.27;2872807;82;21127;-67
2020/12/30 16:26:34;;;;;;;114.62;69.70;;;;;;;4.41;72.81;99059.16;2872492;82;21227;-66
2020/12/30 16:30:37;;;;;;;145.17;77.75;;;;;;;4.32;73.22;99070.38;2872735;82;21155;-65
2020/12/30 16:34:40;;;;;;;264.12;143.68;;;;;;;4.20;73.68;99074.77;2872907;82;21691;-67
2020/12/30 16:38:43;;;;;;;128.42;74.20;;;;;;;4.12;74.30;99071.39;2872713;82;21428;-66
2020/12/30 16:42:46;;;;;;;85.17;56.90;;;;;;;4.04;74.56;99075.09;2872874;82;21601;-67
2020/12/30 16:46:49;;;;;;;59.70;37.03;;;;;;;4.04;75.05;99079.03;2872600;82;21195;-65
2020/12/30 16:50:53;;;;;;;51.58;33.35;;;;;;;4.18;74.44;99082.44;2873012;82;21159;-65
2020/12/30 16:54:56;;;;;;;49.38;33.00;;;;;;;4.20;73.85;99089.74;2872994;82;21579;-66
2020/12/30 16:58:59;;;;;;;84.22;52.08;;;;;;;4.26;73.47;99097.17;2872747;82;21139;-65
2020/12/30 17:03:03;;;;;;;80.00;49.67;;;;;;;4.24;73.47;99100.40;2872788;81;21505;-65
2020/12/30 17:07:08;;;;;;;86.70;47.80;;;;;;;4.22;73.35;99100.99;2872793;82;21601;-67
2020/12/30 17:11:11;;;;;;;84.92;48.45;;;;;;;4.20;73.37;99098.95;2868281;82;21184;-63
2020/12/30 17:15:14;;;;;;;83.10;47.20;;;;;;;4.15;73.55;99109.81;2867527;83;21136;-67
2020/12/30 17:19:17;;;;;;;86.25;51.63;;;;;;;4.20;74.16;99118.20;2867736;83;21610;-65
2020/12/30 17:23:20;;;;;;;97.12;54.35;;;;;;;4.33;74.01;99113.35;2864372;81;21730;-62
2020/12/30 17:27:23;;;;;;;111.80;60.15;;;;;;;4.39;73.74;99113.73;2864663;82;21178;-62
2020/12/30 17:31:30;;;;;;;85.22;51.35;;;;;;;4.40;73.24;99111.47;2867889;83;21160;-63
2020/12/30 17:35:34;;;;;;;269.85;160.45;;;;;;;4.28;72.32;99121.59;2867684;82;21189;-70
2020/12/30 17:39:38;;;;;;;440.23;244.18;;;;;;;4.14;73.17;99124.78;2836776;83;21167;-64
2020/12/30 17:43:43;;;;;;;243.33;135.40;;;;;;;4.17;73.14;99121.56;2879405;81;21120;-65
2020/12/30 17:47:46;;;;;;;586.08;390.27;;;;;;;4.16;72.94;99126.47;2851273;81;21551;-68
2020/12/30 17:51:49;;;;;;;460.87;281.13;;;;;;;4.20;73.80;99130.55;2860775;81;21147;-64
2020/12/30 17:55:53;;;;;;;232.90;137.28;;;;;;;4.20;73.90;99129.23;2856608;81;21151;-64
2020/12/30 17:59:56;;;;;;;290.98;183.85;;;;;;;4.08;73.27;99141.00;2830467;81;21194;-65
2020/12/30 18:03:59;;;;;;;163.37;94.72;;;;;;;4.04;73.24;99146.14;2855364;81;21171;-63
2020/12/30 18:08:02;;;;;;;128.45;77.40;;;;;;;4.00;73.02;99152.09;2881682;81;21140;-64
2020/12/30 18:12:06;;;;;;;150.68;84.47;;;;;;;3.90;72.45;99158.13;2868896;82;21178;-67
2020/12/30 18:16:09;;;;;;;163.72;97.02;;;;;;;3.81;72.64;99164.44;2892092;81;21125;-65
2020/12/30 18:20:12;;;;;;;139.32;75.62;;;;;;;3.76;72.61;99176.23;2867627;83;21118;-65
2020/12/30 18:24:15;;;;;;;108.33;60.70;;;;;;;3.66;72.99;99178.67;2867662;83;21736;-65
2020/12/30 18:28:18;;;;;;;97.20;53.92;;;;;;;3.44;73.57;99172.30;2871930;81;21146;-67
2020/12/30 18:32:21;;;;;;;89.47;56.92;;;;;;;3.35;74.34;99178.22;2867701;83;21128;-66
2020/12/30 18:36:28;;;;;;;90.28;54.55;;;;;;;3.20;74.23;99186.67;2854814;81;21143;-70
2020/12/30 18:40:31;;;;;;;;;;;;;;;3.10;74.45;99193.88;2853023;81;21569;-68
2020/12/30 18:44:34;;;;;;;100.40;56.53;;;;;;;3.11;75.06;99193.39;2843424;81;20182;-67
2020/12/30 18:48:37;;;;;;;87.92;56.00;;;;;;;3.10;75.30;99194.34;2836633;81;21167;-67
2020/12/30 18:52:41;;;;;;;99.42;57.10;;;;;;;3.13;75.34;99198.92;2838282;81;21163;-69
2020/12/30 18:56:46;;;;;;;94.90;53.13;;;;;;;3.20;75.03;99196.72;2843063;81;21183;-68